sensor_id;sensor_type;location;lat;lon;timestamp;P1;durP1;ratioP1;P2;durP2;ratioP2
11016;SDS011;54687;50.800;6.772;2022-09-21T00:00:27;7.22;;;4.30;;
11016;SDS011;54687;50.800;6.772;2022-09-21T00:02:54;6.50;;;4.15;;
11016;SDS011;54687;50.800;6.772;2022-09-21T00:05:21;6.55;;;4.60;;
11016;SDS011;54687;50.800;6.772;2022-09-21T00:07:48;6.63;;;4.30;;
11016;SDS011;54687;50.800;6.772;2022-09-21T00:10:15;5.53;;;4.28;;
11016;SDS011;54687;50.800;6.772;2022-09-21T00:12:44;6.43;;;4.13;;
11016;SDS011;54687;50.800;6.772;2022-09-21T00:15:12;3.75;;;3.40;;
11016;SDS011;54687;50.800;6.772;2022-09-21T00:17:42;5.90;;;4.15;;
11016;SDS011;54687;50.800;6.772;2022-09-21T00:20:09;4.68;;;3.70;;
11016;SDS011;54687;50.800;6.772;2022-09-21T00:22:35;5.28;;;4.28;;
11016;SDS011;54687;50.800;6.772;2022-09-21T00:25:02;5.78;;;3.92;;
11016;SDS011;54687;50.800;6.772;2022-09-21T00:27:31;6.28;;;4.40;;
11016;SDS011;54687;50.800;6.772;2022-09-21T00:30:00;4.93;;;4.43;;
11016;SDS011;54687;50.800;6.772;2022-09-21T00:32:27;5.85;;;3.90;;
11016;SDS011;54687;50.800;6.772;2022-09-21T00:34:55;5.35;;;4.10;;
11016;SDS011;54687;50.800;6.772;2022-09-21T00:37:23;6.47;;;4.15;;
11016;SDS011;54687;50.800;6.772;2022-09-21T00:39:50;4.38;;;3.95;;
11016;SDS011;54687;50.800;6.772;2022-09-21T00:42:18;5.18;;;4.43;;
11016;SDS011;54687;50.800;6.772;2022-09-21T00:44:45;8.05;;;4.68;;
11016;SDS011;54687;50.800;6.772;2022-09-21T00:47:14;7.47;;;4.00;;
11016;SDS011;54687;50.800;6.772;2022-09-21T00:49:43;4.65;;;3.83;;
11016;SDS011;54687;50.800;6.772;2022-09-21T00:52:13;4.82;;;4.35;;
11016;SDS011;54687;50.800;6.772;2022-09-21T00:54:43;4.55;;;3.55;;
11016;SDS011;54687;50.800;6.772;2022-09-21T00:57:15;4.55;;;4.15;;
11016;SDS011;54687;50.800;6.772;2022-09-21T00:59:44;5.28;;;4.22;;
11016;SDS011;54687;50.800;6.772;2022-09-21T01:02:10;5.28;;;4.22;;
11016;SDS011;54687;50.800;6.772;2022-09-21T01:04:41;4.45;;;3.90;;
11016;SDS011;54687;50.800;6.772;2022-09-21T01:07:09;4.65;;;4.15;;
11016;SDS011;54687;50.800;6.772;2022-09-21T01:09:38;4.43;;;3.88;;
11016;SDS011;54687;50.800;6.772;2022-09-21T01:12:10;5.05;;;3.78;;
11016;SDS011;54687;50.800;6.772;2022-09-21T01:14:52;4.07;;;3.35;;
11016;SDS011;54687;50.800;6.772;2022-09-21T01:17:33;3.55;;;3.25;;
11016;SDS011;54687;50.800;6.772;2022-09-21T01:20:19;4.90;;;3.35;;
11016;SDS011;54687;50.800;6.772;2022-09-21T01:23:11;3.78;;;3.25;;
11016;SDS011;54687;50.800;6.772;2022-09-21T01:25:53;4.40;;;3.28;;
11016;SDS011;54687;50.800;6.772;2022-09-21T01:28:33;3.72;;;3.42;;
11016;SDS011;54687;50.800;6.772;2022-09-21T01:31:35;4.88;;;3.47;;
11016;SDS011;54687;50.800;6.772;2022-09-21T01:34:06;4.70;;;3.30;;
11016;SDS011;54687;50.800;6.772;2022-09-21T01:36:40;6.40;;;3.60;;
11016;SDS011;54687;50.800;6.772;2022-09-21T01:39:12;4.00;;;3.30;;
11016;SDS011;54687;50.800;6.772;2022-09-21T01:41:41;4.40;;;3.17;;
11016;SDS011;54687;50.800;6.772;2022-09-21T01:44:13;3.22;;;2.95;;
11016;SDS011;54687;50.800;6.772;2022-09-21T01:46:43;5.75;;;3.50;;
11016;SDS011;54687;50.800;6.772;2022-09-21T01:49:12;5.03;;;3.65;;
11016;SDS011;54687;50.800;6.772;2022-09-21T01:51:43;6.95;;;3.88;;
11016;SDS011;54687;50.800;6.772;2022-09-21T01:54:16;4.25;;;3.20;;
11016;SDS011;54687;50.800;6.772;2022-09-21T01:56:48;7.03;;;3.38;;
11016;SDS011;54687;50.800;6.772;2022-09-21T01:59:21;5.28;;;3.65;;
11016;SDS011;54687;50.800;6.772;2022-09-21T02:01:54;5.13;;;3.50;;
11016;SDS011;54687;50.800;6.772;2022-09-21T02:04:25;6.15;;;3.50;;
11016;SDS011;54687;50.800;6.772;2022-09-21T02:06:53;5.13;;;3.65;;
11016;SDS011;54687;50.800;6.772;2022-09-21T02:09:20;3.85;;;3.45;;
11016;SDS011;54687;50.800;6.772;2022-09-21T02:11:49;4.93;;;3.05;;
11016;SDS011;54687;50.800;6.772;2022-09-21T02:14:16;4.82;;;3.40;;
11016;SDS011;54687;50.800;6.772;2022-09-21T02:16:52;3.72;;;3.22;;
11016;SDS011;54687;50.800;6.772;2022-09-21T02:19:28;3.72;;;3.40;;
11016;SDS011;54687;50.800;6.772;2022-09-21T02:22:03;3.88;;;3.35;;
11016;SDS011;54687;50.800;6.772;2022-09-21T02:24:34;4.57;;;4.03;;
11016;SDS011;54687;50.800;6.772;2022-09-21T02:27:08;4.55;;;3.53;;
11016;SDS011;54687;50.800;6.772;2022-09-21T02:29:48;3.30;;;3.00;;
11016;SDS011;54687;50.800;6.772;2022-09-21T02:32:22;3.22;;;2.45;;
11016;SDS011;54687;50.800;6.772;2022-09-21T02:34:57;5.40;;;3.25;;
11016;SDS011;54687;50.800;6.772;2022-09-21T02:37:30;3.50;;;3.20;;
11016;SDS011;54687;50.800;6.772;2022-09-21T02:40:03;5.15;;;3.50;;
11016;SDS011;54687;50.800;6.772;2022-09-21T02:42:40;3.72;;;3.20;;
11016;SDS011;54687;50.800;6.772;2022-09-21T02:45:13;4.10;;;3.63;;
11016;SDS011;54687;50.800;6.772;2022-09-21T02:47:45;4.15;;;3.50;;
11016;SDS011;54687;50.800;6.772;2022-09-21T02:50:18;3.85;;;3.45;;
11016;SDS011;54687;50.800;6.772;2022-09-21T02:52:48;3.70;;;3.00;;
11016;SDS011;54687;50.800;6.772;2022-09-21T02:55:18;5.78;;;4.40;;
11016;SDS011;54687;50.800;6.772;2022-09-21T02:57:45;5.65;;;4.43;;
11016;SDS011;54687;50.800;6.772;2022-09-21T03:00:15;5.53;;;4.13;;
11016;SDS011;54687;50.800;6.772;2022-09-21T03:02:43;6.07;;;4.00;;
11016;SDS011;54687;50.800;6.772;2022-09-21T03:05:10;3.70;;;3.35;;
11016;SDS011;54687;50.800;6.772;2022-09-21T03:07:38;4.28;;;3.38;;
11016;SDS011;54687;50.800;6.772;2022-09-21T03:10:05;4.07;;;3.65;;
11016;SDS011;54687;50.800;6.772;2022-09-21T03:12:33;4.38;;;3.33;;
11016;SDS011;54687;50.800;6.772;2022-09-21T03:15:02;4.15;;;3.25;;
11016;SDS011;54687;50.800;6.772;2022-09-21T03:17:30;4.30;;;3.30;;
11016;SDS011;54687;50.800;6.772;2022-09-21T03:19:57;6.13;;;3.55;;
11016;SDS011;54687;50.800;6.772;2022-09-21T03:22:23;4.43;;;3.45;;
11016;SDS011;54687;50.800;6.772;2022-09-21T03:24:51;3.33;;;3.03;;
11016;SDS011;54687;50.800;6.772;2022-09-21T03:27:21;4.32;;;3.10;;
11016;SDS011;54687;50.800;6.772;2022-09-21T03:29:49;4.38;;;3.33;;
11016;SDS011;54687;50.800;6.772;2022-09-21T03:32:16;5.60;;;3.50;;
11016;SDS011;54687;50.800;6.772;2022-09-21T03:34:43;3.65;;;3.35;;
11016;SDS011;54687;50.800;6.772;2022-09-21T03:37:10;5.60;;;3.58;;
11016;SDS011;54687;50.800;6.772;2022-09-21T03:39:37;5.47;;;3.38;;
11016;SDS011;54687;50.800;6.772;2022-09-21T03:42:04;4.93;;;3.20;;
11016;SDS011;54687;50.800;6.772;2022-09-21T03:44:31;4.80;;;3.60;;
11016;SDS011;54687;50.800;6.772;2022-09-21T03:46:57;4.57;;;3.50;;
11016;SDS011;54687;50.800;6.772;2022-09-21T03:49:24;4.13;;;3.45;;
11016;SDS011;54687;50.800;6.772;2022-09-21T03:51:52;5.38;;;3.70;;
11016;SDS011;54687;50.800;6.772;2022-09-21T03:54:20;7.70;;;3.80;;
11016;SDS011;54687;50.800;6.772;2022-09-21T03:56:47;4.03;;;3.22;;
11016;SDS011;54687;50.800;6.772;2022-09-21T03:59:14;3.08;;;2.70;;
11016;SDS011;54687;50.800;6.772;2022-09-21T04:01:41;5.05;;;3.55;;
11016;SDS011;54687;50.800;6.772;2022-09-21T04:04:07;5.88;;;3.63;;
11016;SDS011;54687;50.800;6.772;2022-09-21T04:06:34;4.18;;;3.60;;
11016;SDS011;54687;50.800;6.772;2022-09-21T04:09:02;4.93;;;3.30;;
11016;SDS011;54687;50.800;6.772;2022-09-21T04:11:29;4.63;;;3.10;;
11016;SDS011;54687;50.800;6.772;2022-09-21T04:13:57;8.55;;;3.75;;
11016;SDS011;54687;50.800;6.772;2022-09-21T04:16:25;3.70;;;3.40;;
11016;SDS011;54687;50.800;6.772;2022-09-21T04:18:54;3.47;;;3.17;;
11016;SDS011;54687;50.800;6.772;2022-09-21T04:21:21;5.07;;;3.10;;
11016;SDS011;54687;50.800;6.772;2022-09-21T04:23:48;4.65;;;3.22;;
11016;SDS011;54687;50.800;6.772;2022-09-21T04:26:20;5.10;;;3.63;;
11016;SDS011;54687;50.800;6.772;2022-09-21T04:28:48;6.40;;;3.50;;
11016;SDS011;54687;50.800;6.772;2022-09-21T04:31:15;5.72;;;3.47;;
11016;SDS011;54687;50.800;6.772;2022-09-21T04:33:41;7.70;;;4.10;;
11016;SDS011;54687;50.800;6.772;2022-09-21T04:36:08;4.30;;;3.80;;
11016;SDS011;54687;50.800;6.772;2022-09-21T04:38:35;4.47;;;3.75;;
11016;SDS011;54687;50.800;6.772;2022-09-21T04:41:02;5.43;;;4.00;;
11016;SDS011;54687;50.800;6.772;2022-09-21T04:43:30;3.72;;;3.35;;
11016;SDS011;54687;50.800;6.772;2022-09-21T04:45:57;4.80;;;3.20;;
11016;SDS011;54687;50.800;6.772;2022-09-21T04:48:23;3.60;;;3.30;;
11016;SDS011;54687;50.800;6.772;2022-09-21T04:50:50;4.72;;;3.20;;
11016;SDS011;54687;50.800;6.772;2022-09-21T04:53:16;3.42;;;3.13;;
11016;SDS011;54687;50.800;6.772;2022-09-21T04:55:43;4.25;;;3.03;;
11016;SDS011;54687;50.800;6.772;2022-09-21T04:58:10;5.97;;;3.70;;
11016;SDS011;54687;50.800;6.772;2022-09-21T05:00:38;3.72;;;3.25;;
11016;SDS011;54687;50.800;6.772;2022-09-21T05:03:05;4.75;;;3.95;;
11016;SDS011;54687;50.800;6.772;2022-09-21T05:05:31;4.35;;;3.30;;
11016;SDS011;54687;50.800;6.772;2022-09-21T05:07:58;5.32;;;3.30;;
11016;SDS011;54687;50.800;6.772;2022-09-21T05:10:24;5.45;;;3.60;;
11016;SDS011;54687;50.800;6.772;2022-09-21T05:12:50;4.20;;;3.80;;
11016;SDS011;54687;50.800;6.772;2022-09-21T05:15:17;6.20;;;3.83;;
11016;SDS011;54687;50.800;6.772;2022-09-21T05:17:45;4.57;;;3.97;;
11016;SDS011;54687;50.800;6.772;2022-09-21T05:20:13;4.57;;;3.75;;
11016;SDS011;54687;50.800;6.772;2022-09-21T05:22:39;5.38;;;4.22;;
11016;SDS011;54687;50.800;6.772;2022-09-21T05:25:06;4.40;;;3.53;;
11016;SDS011;54687;50.800;6.772;2022-09-21T05:27:34;4.72;;;4.00;;
11016;SDS011;54687;50.800;6.772;2022-09-21T05:30:01;4.05;;;3.65;;
11016;SDS011;54687;50.800;6.772;2022-09-21T05:32:31;4.63;;;3.42;;
11016;SDS011;54687;50.800;6.772;2022-09-21T05:35:09;8.25;;;3.72;;
11016;SDS011;54687;50.800;6.772;2022-09-21T05:37:46;3.92;;;3.00;;
11016;SDS011;54687;50.800;6.772;2022-09-21T05:40:17;3.90;;;3.38;;
11016;SDS011;54687;50.800;6.772;2022-09-21T05:42:44;5.05;;;3.70;;
11016;SDS011;54687;50.800;6.772;2022-09-21T05:45:12;4.65;;;4.22;;
11016;SDS011;54687;50.800;6.772;2022-09-21T05:47:44;7.13;;;4.68;;
11016;SDS011;54687;50.800;6.772;2022-09-21T05:50:23;5.32;;;4.85;;
11016;SDS011;54687;50.800;6.772;2022-09-21T05:53:02;6.18;;;5.22;;
11016;SDS011;54687;50.800;6.772;2022-09-21T05:55:39;6.78;;;4.70;;
11016;SDS011;54687;50.800;6.772;2022-09-21T05:58:15;8.95;;;6.10;;
11016;SDS011;54687;50.800;6.772;2022-09-21T06:00:58;8.63;;;6.05;;
11016;SDS011;54687;50.800;6.772;2022-09-21T06:03:36;6.60;;;5.97;;
11016;SDS011;54687;50.800;6.772;2022-09-21T06:06:07;6.20;;;5.32;;
11016;SDS011;54687;50.800;6.772;2022-09-21T06:08:34;9.27;;;5.07;;
11016;SDS011;54687;50.800;6.772;2022-09-21T06:11:00;4.70;;;4.30;;
11016;SDS011;54687;50.800;6.772;2022-09-21T06:13:27;6.90;;;4.50;;
11016;SDS011;54687;50.800;6.772;2022-09-21T06:15:54;6.60;;;4.28;;
11016;SDS011;54687;50.800;6.772;2022-09-21T06:18:21;3.95;;;3.55;;
11016;SDS011;54687;50.800;6.772;2022-09-21T06:20:47;5.70;;;3.35;;
11016;SDS011;54687;50.800;6.772;2022-09-21T06:23:15;4.35;;;3.70;;
11016;SDS011;54687;50.800;6.772;2022-09-21T06:25:42;5.97;;;3.95;;
11016;SDS011;54687;50.800;6.772;2022-09-21T06:28:09;5.55;;;4.10;;
11016;SDS011;54687;50.800;6.772;2022-09-21T06:30:37;6.10;;;4.07;;
11016;SDS011;54687;50.800;6.772;2022-09-21T06:33:06;5.43;;;3.95;;
11016;SDS011;54687;50.800;6.772;2022-09-21T06:35:34;6.32;;;3.95;;
11016;SDS011;54687;50.800;6.772;2022-09-21T06:38:02;5.55;;;4.38;;
11016;SDS011;54687;50.800;6.772;2022-09-21T06:40:32;7.13;;;4.22;;
11016;SDS011;54687;50.800;6.772;2022-09-21T06:43:00;4.82;;;3.90;;
11016;SDS011;54687;50.800;6.772;2022-09-21T06:45:31;8.00;;;4.32;;
11016;SDS011;54687;50.800;6.772;2022-09-21T06:47:58;5.05;;;4.13;;
11016;SDS011;54687;50.800;6.772;2022-09-21T06:50:24;7.00;;;3.90;;
11016;SDS011;54687;50.800;6.772;2022-09-21T06:52:51;4.45;;;3.97;;
11016;SDS011;54687;50.800;6.772;2022-09-21T06:55:17;6.30;;;4.00;;
11016;SDS011;54687;50.800;6.772;2022-09-21T06:57:46;6.30;;;4.07;;
11016;SDS011;54687;50.800;6.772;2022-09-21T07:00:13;8.63;;;4.30;;
11016;SDS011;54687;50.800;6.772;2022-09-21T07:02:41;7.00;;;4.13;;
11016;SDS011;54687;50.800;6.772;2022-09-21T07:05:09;5.28;;;4.10;;
11016;SDS011;54687;50.800;6.772;2022-09-21T07:07:37;5.82;;;3.67;;
11016;SDS011;54687;50.800;6.772;2022-09-21T07:10:04;5.93;;;3.90;;
11016;SDS011;54687;50.800;6.772;2022-09-21T07:12:32;6.35;;;3.92;;
11016;SDS011;54687;50.800;6.772;2022-09-21T07:15:01;5.22;;;4.07;;
11016;SDS011;54687;50.800;6.772;2022-09-21T07:17:30;4.50;;;4.10;;
11016;SDS011;54687;50.800;6.772;2022-09-21T07:19:57;5.95;;;4.70;;
11016;SDS011;54687;50.800;6.772;2022-09-21T07:24:58;5.10;;;4.28;;
11016;SDS011;54687;50.800;6.772;2022-09-21T07:27:26;4.57;;;4.10;;
11016;SDS011;54687;50.800;6.772;2022-09-21T07:29:54;8.10;;;4.45;;
11016;SDS011;54687;50.800;6.772;2022-09-21T07:32:22;4.45;;;4.05;;
11016;SDS011;54687;50.800;6.772;2022-09-21T07:34:49;6.38;;;4.30;;
11016;SDS011;54687;50.800;6.772;2022-09-21T07:37:20;5.55;;;4.90;;
11016;SDS011;54687;50.800;6.772;2022-09-21T07:39:47;5.68;;;5.18;;
11016;SDS011;54687;50.800;6.772;2022-09-21T07:42:14;6.80;;;4.47;;
11016;SDS011;54687;50.800;6.772;2022-09-21T07:44:41;5.20;;;4.70;;
11016;SDS011;54687;50.800;6.772;2022-09-21T07:47:08;5.03;;;4.53;;
11016;SDS011;54687;50.800;6.772;2022-09-21T07:49:40;5.82;;;4.60;;
11016;SDS011;54687;50.800;6.772;2022-09-21T07:52:07;4.95;;;4.45;;
11016;SDS011;54687;50.800;6.772;2022-09-21T07:54:34;6.07;;;5.20;;
11016;SDS011;54687;50.800;6.772;2022-09-21T07:57:01;6.60;;;5.53;;
11016;SDS011;54687;50.800;6.772;2022-09-21T07:59:46;5.53;;;5.03;;
11016;SDS011;54687;50.800;6.772;2022-09-21T08:02:13;8.38;;;5.35;;
11016;SDS011;54687;50.800;6.772;2022-09-21T08:04:41;5.60;;;4.93;;
11016;SDS011;54687;50.800;6.772;2022-09-21T08:07:07;10.15;;;9.15;;
11016;SDS011;54687;50.800;6.772;2022-09-21T08:09:34;10.60;;;8.48;;
11016;SDS011;54687;50.800;6.772;2022-09-21T08:12:01;10.65;;;8.05;;
11016;SDS011;54687;50.800;6.772;2022-09-21T08:14:27;9.45;;;7.20;;
11016;SDS011;54687;50.800;6.772;2022-09-21T08:16:54;8.23;;;7.03;;
11016;SDS011;54687;50.800;6.772;2022-09-21T08:19:21;10.23;;;6.50;;
11016;SDS011;54687;50.800;6.772;2022-09-21T08:21:51;8.32;;;6.35;;
11016;SDS011;54687;50.800;6.772;2022-09-21T08:24:18;7.72;;;6.32;;
11016;SDS011;54687;50.800;6.772;2022-09-21T08:26:45;8.13;;;6.78;;
11016;SDS011;54687;50.800;6.772;2022-09-21T08:29:12;8.23;;;7.07;;
11016;SDS011;54687;50.800;6.772;2022-09-21T08:31:39;7.60;;;6.90;;
11016;SDS011;54687;50.800;6.772;2022-09-21T08:34:05;8.25;;;6.93;;
11016;SDS011;54687;50.800;6.772;2022-09-21T08:36:32;8.50;;;7.68;;
11016;SDS011;54687;50.800;6.772;2022-09-21T08:39:00;10.65;;;7.88;;
11016;SDS011;54687;50.800;6.772;2022-09-21T08:41:30;9.13;;;7.53;;
11016;SDS011;54687;50.800;6.772;2022-09-21T08:44:15;8.82;;;8.00;;
11016;SDS011;54687;50.800;6.772;2022-09-21T08:46:45;8.30;;;7.43;;
11016;SDS011;54687;50.800;6.772;2022-09-21T08:49:27;11.27;;;8.38;;
11016;SDS011;54687;50.800;6.772;2022-09-21T08:51:55;11.35;;;7.75;;
11016;SDS011;54687;50.800;6.772;2022-09-21T08:54:27;10.82;;;8.05;;
11016;SDS011;54687;50.800;6.772;2022-09-21T08:57:00;13.60;;;9.02;;
11016;SDS011;54687;50.800;6.772;2022-09-21T08:59:27;13.48;;;8.73;;
11016;SDS011;54687;50.800;6.772;2022-09-21T09:01:55;8.90;;;8.10;;
11016;SDS011;54687;50.800;6.772;2022-09-21T09:04:38;10.00;;;8.68;;
11016;SDS011;54687;50.800;6.772;2022-09-21T09:07:15;12.48;;;8.77;;
11016;SDS011;54687;50.800;6.772;2022-09-21T09:09:59;16.25;;;8.77;;
11016;SDS011;54687;50.800;6.772;2022-09-21T09:12:36;14.73;;;8.95;;
11016;SDS011;54687;50.800;6.772;2022-09-21T09:15:21;14.00;;;8.50;;
11016;SDS011;54687;50.800;6.772;2022-09-21T09:17:59;11.50;;;7.57;;
11016;SDS011;54687;50.800;6.772;2022-09-21T09:20:35;9.43;;;7.22;;
11016;SDS011;54687;50.800;6.772;2022-09-21T09:23:06;8.55;;;6.50;;
11016;SDS011;54687;50.800;6.772;2022-09-21T09:25:40;7.53;;;6.03;;
11016;SDS011;54687;50.800;6.772;2022-09-21T09:28:16;9.25;;;7.40;;
11016;SDS011;54687;50.800;6.772;2022-09-21T09:30:51;9.20;;;6.88;;
11016;SDS011;54687;50.800;6.772;2022-09-21T09:33:25;9.75;;;6.70;;
11016;SDS011;54687;50.800;6.772;2022-09-21T09:35:54;10.95;;;6.80;;
11016;SDS011;54687;50.800;6.772;2022-09-21T09:38:28;9.38;;;5.85;;
11016;SDS011;54687;50.800;6.772;2022-09-21T09:41:05;6.78;;;5.50;;
11016;SDS011;54687;50.800;6.772;2022-09-21T09:43:56;8.18;;;5.93;;
11016;SDS011;54687;50.800;6.772;2022-09-21T09:46:41;7.13;;;5.18;;
11016;SDS011;54687;50.800;6.772;2022-09-21T09:49:23;8.63;;;5.45;;
11016;SDS011;54687;50.800;6.772;2022-09-21T09:51:58;6.68;;;5.28;;
11016;SDS011;54687;50.800;6.772;2022-09-21T09:54:26;8.48;;;5.15;;
11016;SDS011;54687;50.800;6.772;2022-09-21T09:56:59;6.38;;;4.43;;
11016;SDS011;54687;50.800;6.772;2022-09-21T09:59:28;5.45;;;4.25;;
11016;SDS011;54687;50.800;6.772;2022-09-21T10:02:02;10.40;;;5.15;;
11016;SDS011;54687;50.800;6.772;2022-09-21T10:04:30;8.50;;;5.00;;
11016;SDS011;54687;50.800;6.772;2022-09-21T10:06:58;9.23;;;5.95;;
11016;SDS011;54687;50.800;6.772;2022-09-21T10:09:25;6.28;;;4.40;;
11016;SDS011;54687;50.800;6.772;2022-09-21T10:11:55;10.20;;;4.63;;
11016;SDS011;54687;50.800;6.772;2022-09-21T10:14:27;5.35;;;3.92;;
11016;SDS011;54687;50.800;6.772;2022-09-21T10:17:01;11.45;;;5.00;;
11016;SDS011;54687;50.800;6.772;2022-09-21T10:19:31;11.75;;;6.35;;
11016;SDS011;54687;50.800;6.772;2022-09-21T10:21:58;6.43;;;4.03;;
11016;SDS011;54687;50.800;6.772;2022-09-21T10:24:27;4.00;;;2.60;;
11016;SDS011;54687;50.800;6.772;2022-09-21T10:27:01;4.28;;;2.78;;
11016;SDS011;54687;50.800;6.772;2022-09-21T10:29:37;3.85;;;2.65;;
11016;SDS011;54687;50.800;6.772;2022-09-21T10:32:17;5.80;;;2.80;;
11016;SDS011;54687;50.800;6.772;2022-09-21T10:34:59;5.35;;;2.80;;
11016;SDS011;54687;50.800;6.772;2022-09-21T10:37:42;3.67;;;2.63;;
11016;SDS011;54687;50.800;6.772;2022-09-21T10:40:25;2.55;;;2.20;;
11016;SDS011;54687;50.800;6.772;2022-09-21T10:42:55;3.78;;;2.67;;
11016;SDS011;54687;50.800;6.772;2022-09-21T10:45:25;3.55;;;2.63;;
11016;SDS011;54687;50.800;6.772;2022-09-21T10:47:55;3.53;;;2.58;;
11016;SDS011;54687;50.800;6.772;2022-09-21T10:50:24;4.03;;;2.38;;
11016;SDS011;54687;50.800;6.772;2022-09-21T10:52:56;4.15;;;2.75;;
11016;SDS011;54687;50.800;6.772;2022-09-21T10:55:26;4.95;;;3.20;;
11016;SDS011;54687;50.800;6.772;2022-09-21T10:57:55;5.70;;;3.75;;
11016;SDS011;54687;50.800;6.772;2022-09-21T11:00:29;4.63;;;3.22;;
11016;SDS011;54687;50.800;6.772;2022-09-21T11:03:02;7.70;;;4.03;;
11016;SDS011;54687;50.800;6.772;2022-09-21T11:05:52;7.53;;;3.33;;
11016;SDS011;54687;50.800;6.772;2022-09-21T11:08:21;3.80;;;2.60;;
11016;SDS011;54687;50.800;6.772;2022-09-21T11:11:00;3.05;;;2.63;;
11016;SDS011;54687;50.800;6.772;2022-09-21T11:13:35;5.18;;;3.45;;
11016;SDS011;54687;50.800;6.772;2022-09-21T11:16:11;3.53;;;2.30;;
11016;SDS011;54687;50.800;6.772;2022-09-21T11:18:43;3.50;;;2.08;;
11016;SDS011;54687;50.800;6.772;2022-09-21T11:21:31;3.00;;;2.33;;
11016;SDS011;54687;50.800;6.772;2022-09-21T11:24:08;2.97;;;2.30;;
11016;SDS011;54687;50.800;6.772;2022-09-21T11:26:43;3.80;;;2.35;;
11016;SDS011;54687;50.800;6.772;2022-09-21T11:29:17;4.97;;;2.35;;
11016;SDS011;54687;50.800;6.772;2022-09-21T11:32:09;4.47;;;2.10;;
11016;SDS011;54687;50.800;6.772;2022-09-21T11:34:52;5.00;;;1.98;;
11016;SDS011;54687;50.800;6.772;2022-09-21T11:37:38;2.85;;;2.17;;
11016;SDS011;54687;50.800;6.772;2022-09-21T11:40:20;4.43;;;3.42;;
11016;SDS011;54687;50.800;6.772;2022-09-21T11:42:59;3.28;;;2.50;;
11016;SDS011;54687;50.800;6.772;2022-09-21T11:45:44;4.10;;;2.20;;
11016;SDS011;54687;50.800;6.772;2022-09-21T11:48:25;2.88;;;2.00;;
11016;SDS011;54687;50.800;6.772;2022-09-21T11:51:05;2.80;;;2.13;;
11016;SDS011;54687;50.800;6.772;2022-09-21T11:53:44;6.68;;;3.95;;
11016;SDS011;54687;50.800;6.772;2022-09-21T11:56:35;4.05;;;3.40;;
11016;SDS011;54687;50.800;6.772;2022-09-21T12:02:17;3.78;;;2.20;;
11016;SDS011;54687;50.800;6.772;2022-09-21T12:04:56;2.45;;;1.77;;
11016;SDS011;54687;50.800;6.772;2022-09-21T12:07:33;3.05;;;1.90;;
11016;SDS011;54687;50.800;6.772;2022-09-21T12:13:05;3.72;;;2.03;;
11016;SDS011;54687;50.800;6.772;2022-09-21T12:15:39;3.80;;;1.70;;
11016;SDS011;54687;50.800;6.772;2022-09-21T12:18:11;4.88;;;1.83;;
11016;SDS011;54687;50.800;6.772;2022-09-21T12:20:47;2.30;;;1.60;;
11016;SDS011;54687;50.800;6.772;2022-09-21T12:23:22;4.22;;;2.00;;
11016;SDS011;54687;50.800;6.772;2022-09-21T12:25:56;3.17;;;1.80;;
11016;SDS011;54687;50.800;6.772;2022-09-21T12:28:26;2.25;;;1.80;;
11016;SDS011;54687;50.800;6.772;2022-09-21T12:30:59;2.92;;;2.00;;
11016;SDS011;54687;50.800;6.772;2022-09-21T12:33:31;2.35;;;1.70;;
11016;SDS011;54687;50.800;6.772;2022-09-21T12:36:04;3.22;;;2.05;;
11016;SDS011;54687;50.800;6.772;2022-09-21T12:38:38;5.60;;;2.03;;
11016;SDS011;54687;50.800;6.772;2022-09-21T12:41:09;2.92;;;1.60;;
11016;SDS011;54687;50.800;6.772;2022-09-21T12:43:42;4.32;;;2.20;;
11016;SDS011;54687;50.800;6.772;2022-09-21T12:46:12;3.92;;;1.88;;
11016;SDS011;54687;50.800;6.772;2022-09-21T12:48:43;2.83;;;2.03;;
11016;SDS011;54687;50.800;6.772;2022-09-21T12:51:13;2.38;;;1.65;;
11016;SDS011;54687;50.800;6.772;2022-09-21T12:53:45;4.50;;;2.58;;
11016;SDS011;54687;50.800;6.772;2022-09-21T12:56:15;6.20;;;2.97;;
11016;SDS011;54687;50.800;6.772;2022-09-21T12:58:58;3.92;;;2.53;;
11016;SDS011;54687;50.800;6.772;2022-09-21T13:01:34;3.65;;;1.63;;
11016;SDS011;54687;50.800;6.772;2022-09-21T13:04:11;3.45;;;1.80;;
11016;SDS011;54687;50.800;6.772;2022-09-21T13:10:13;1.92;;;1.33;;
11016;SDS011;54687;50.800;6.772;2022-09-21T13:12:44;2.25;;;1.20;;
11016;SDS011;54687;50.800;6.772;2022-09-21T13:15:18;3.05;;;1.95;;
11016;SDS011;54687;50.800;6.772;2022-09-21T13:17:58;4.55;;;2.58;;
11016;SDS011;54687;50.800;6.772;2022-09-21T13:20:26;3.88;;;2.00;;
11016;SDS011;54687;50.800;6.772;2022-09-21T13:22:59;3.42;;;1.92;;
11016;SDS011;54687;50.800;6.772;2022-09-21T13:25:28;2.22;;;1.30;;
11016;SDS011;54687;50.800;6.772;2022-09-21T13:27:57;1.90;;;1.27;;
11016;SDS011;54687;50.800;6.772;2022-09-21T13:30:33;4.57;;;1.67;;
11016;SDS011;54687;50.800;6.772;2022-09-21T13:33:08;2.08;;;1.40;;
11016;SDS011;54687;50.800;6.772;2022-09-21T13:36:02;2.35;;;1.17;;
11016;SDS011;54687;50.800;6.772;2022-09-21T13:38:57;1.92;;;1.17;;
11016;SDS011;54687;50.800;6.772;2022-09-21T13:41:31;3.65;;;1.40;;
11016;SDS011;54687;50.800;6.772;2022-09-21T13:44:01;2.30;;;1.58;;
11016;SDS011;54687;50.800;6.772;2022-09-21T13:49:23;3.65;;;1.77;;
11016;SDS011;54687;50.800;6.772;2022-09-21T13:51:56;2.58;;;1.30;;
11016;SDS011;54687;50.800;6.772;2022-09-21T13:54:27;2.78;;;1.40;;
11016;SDS011;54687;50.800;6.772;2022-09-21T13:57:01;3.83;;;1.40;;
11016;SDS011;54687;50.800;6.772;2022-09-21T13:59:31;3.13;;;1.50;;
11016;SDS011;54687;50.800;6.772;2022-09-21T14:02:00;2.97;;;1.30;;
11016;SDS011;54687;50.800;6.772;2022-09-21T14:04:29;3.13;;;1.55;;
11016;SDS011;54687;50.800;6.772;2022-09-21T14:07:01;1.35;;;0.95;;
11016;SDS011;54687;50.800;6.772;2022-09-21T14:09:37;2.33;;;1.15;;
11016;SDS011;54687;50.800;6.772;2022-09-21T14:12:11;1.98;;;1.20;;
11016;SDS011;54687;50.800;6.772;2022-09-21T14:15:06;2.83;;;1.45;;
11016;SDS011;54687;50.800;6.772;2022-09-21T14:21:14;2.95;;;1.35;;
11016;SDS011;54687;50.800;6.772;2022-09-21T14:26:54;1.10;;;0.98;;
11016;SDS011;54687;50.800;6.772;2022-09-21T14:29:27;1.42;;;0.98;;
11016;SDS011;54687;50.800;6.772;2022-09-21T14:32:01;2.47;;;1.10;;
11016;SDS011;54687;50.800;6.772;2022-09-21T14:34:31;2.83;;;1.10;;
11016;SDS011;54687;50.800;6.772;2022-09-21T14:37:02;2.38;;;1.52;;
11016;SDS011;54687;50.800;6.772;2022-09-21T14:39:36;2.20;;;1.55;;
11016;SDS011;54687;50.800;6.772;2022-09-21T14:42:06;1.33;;;0.90;;
11016;SDS011;54687;50.800;6.772;2022-09-21T14:44:37;2.38;;;1.00;;
11016;SDS011;54687;50.800;6.772;2022-09-21T14:47:13;1.45;;;1.00;;
11016;SDS011;54687;50.800;6.772;2022-09-21T14:50:01;1.73;;;1.00;;
11016;SDS011;54687;50.800;6.772;2022-09-21T14:52:40;2.53;;;1.10;;
11016;SDS011;54687;50.800;6.772;2022-09-21T14:55:21;2.67;;;1.48;;
11016;SDS011;54687;50.800;6.772;2022-09-21T14:57:58;2.33;;;1.15;;
11016;SDS011;54687;50.800;6.772;2022-09-21T15:00:39;1.15;;;0.75;;
11016;SDS011;54687;50.800;6.772;2022-09-21T15:03:31;1.92;;;1.08;;
11016;SDS011;54687;50.800;6.772;2022-09-21T15:06:10;1.35;;;0.80;;
11016;SDS011;54687;50.800;6.772;2022-09-21T15:09:05;3.03;;;1.50;;
11016;SDS011;54687;50.800;6.772;2022-09-21T15:12:08;2.08;;;1.30;;
11016;SDS011;54687;50.800;6.772;2022-09-21T15:14:39;2.47;;;1.40;;
11016;SDS011;54687;50.800;6.772;2022-09-21T15:17:17;3.40;;;1.38;;
11016;SDS011;54687;50.800;6.772;2022-09-21T15:19:50;2.08;;;1.08;;
11016;SDS011;54687;50.800;6.772;2022-09-21T15:22:22;1.75;;;1.15;;
11016;SDS011;54687;50.800;6.772;2022-09-21T15:24:49;2.58;;;1.00;;
11016;SDS011;54687;50.800;6.772;2022-09-21T15:27:17;2.30;;;1.10;;
11016;SDS011;54687;50.800;6.772;2022-09-21T15:29:47;2.72;;;0.98;;
11016;SDS011;54687;50.800;6.772;2022-09-21T15:32:22;1.33;;;0.88;;
11016;SDS011;54687;50.800;6.772;2022-09-21T15:34:57;1.13;;;0.90;;
11016;SDS011;54687;50.800;6.772;2022-09-21T15:37:26;1.25;;;0.88;;